Time;durP1;ratioP1;P1;durP2;ratioP2;P2;SDS_P1;SDS_P2;PMS_P1;PMS_P2;Temp;Humidity;BMP_temperature;BMP_pressure;BME280_temperature;BME280_humidity;BME280_pressure;Samples;Min_cycle;Max_cycle;Signal;HPM_P1;HPM_P2
2023/10/15 00:00:40;;;;;;;14.32;7.82;;;;;;;17.00;47.30;94665.00;5106384;27;20218;-75
2023/10/15 00:03:07;;;;;;;19.08;7.38;;;;;;;16.99;47.06;94658.03;5105084;27;20218;-75
2023/10/15 00:05:32;;;;;;;13.32;7.80;;;;;;;16.95;47.03;94657.63;5109831;27;20243;-74
2023/10/15 00:07:58;;;;;;;17.67;8.10;;;;;;;16.81;47.06;94657.75;5112796;27;20246;-74
2023/10/15 00:10:25;;;;;;;15.85;8.05;;;;;;;16.88;46.76;94653.28;5109727;27;20207;-74
2023/10/15 00:12:55;;;;;;;15.23;7.53;;;;;;;16.93;46.75;94649.03;5127467;27;20223;-74
2023/10/15 00:15:25;;;;;;;13.27;8.18;;;;;;;16.86;47.27;94644.69;5107784;27;20219;-74
2023/10/15 00:17:53;;;;;;;17.38;7.70;;;;;;;16.92;47.00;94641.25;5125943;27;20222;-74
2023/10/15 00:20:20;;;;;;;14.40;8.27;;;;;;;16.88;46.44;94646.13;5111085;27;20310;-74
2023/10/15 00:22:47;;;;;;;15.77;7.88;;;;;;;16.97;46.18;94638.81;5129168;27;20237;-74
2023/10/15 00:25:14;;;;;;;12.85;7.38;;;;;;;16.91;46.03;94643.09;5111223;27;20231;-74
2023/10/15 00:27:44;;;;;;;10.27;7.03;;;;;;;16.85;46.26;94635.94;5099223;27;20218;-76
2023/10/15 00:30:14;;;;;;;16.30;8.00;;;;;;;16.59;47.26;94641.91;5104415;28;20297;-74
2023/10/15 00:32:43;;;;;;;12.48;7.65;;;;;;;16.65;47.25;94649.13;5108824;27;20214;-74
2023/10/15 00:35:10;;;;;;;11.98;7.78;;;;;;;16.58;47.60;94645.59;5099814;28;20272;-75
2023/10/15 00:37:40;;;;;;;15.32;7.78;;;;;;;16.60;47.66;94638.25;5114589;27;20187;-73
2023/10/15 00:40:16;;;;;;;11.32;7.45;;;;;;;16.60;47.82;94643.56;5111067;27;20228;-75
2023/10/15 00:42:44;;;;;;;13.45;8.15;;;;;;;16.52;47.82;94638.44;5126735;27;20211;-75
2023/10/15 00:45:10;;;;;;;11.05;7.63;;;;;;;16.41;48.36;94644.28;5110342;28;20428;-75
2023/10/15 00:47:36;;;;;;;11.07;7.35;;;;;;;16.34;48.54;94640.78;5129328;28;20310;-75
2023/10/15 00:50:07;;;;;;;13.35;7.70;;;;;;;16.32;48.29;94641.78;5111720;28;20217;-75
2023/10/15 00:52:37;;;;;;;12.60;7.70;;;;;;;16.28;48.76;94634.44;5128941;28;20188;-75
2023/10/15 00:55:05;;;;;;;13.23;7.05;;;;;;;16.30;48.58;94637.69;5126446;28;20207;-76
2023/10/15 00:57:41;;;;;;;13.30;8.05;;;;;;;16.26;48.17;94642.59;5111197;28;20223;-75
2023/10/15 01:02:58;;;;;;;13.63;7.35;;;;;;;16.35;48.18;94631.81;5114157;28;20245;-76
2023/10/15 01:05:26;;;;;;;14.18;7.60;;;;;;;16.36;48.03;94625.47;5113636;28;20267;-75
2023/10/15 01:07:54;;;;;;;16.45;8.10;;;;;;;16.30;48.04;94633.22;5103247;28;20206;-76
2023/10/15 01:10:39;;;;;;;11.48;7.97;;;;;;;16.22;48.38;94621.94;5109707;28;20175;-76
2023/10/15 01:13:21;;;;;;;11.73;7.50;;;;;;;16.30;48.22;94622.63;5107916;28;20223;-76
2023/10/15 01:15:51;;;;;;;18.20;8.25;;;;;;;16.30;48.35;94627.09;5127601;28;20253;-76
2023/10/15 01:18:17;;;;;;;11.35;6.93;;;;;;;16.29;47.95;94620.16;5110155;28;20276;-76
2023/10/15 01:20:43;;;;;;;12.77;6.60;;;;;;;16.17;48.12;94611.09;5111856;28;20214;-76
2023/10/15 01:23:28;;;;;;;8.68;7.03;;;;;;;16.25;47.98;94617.09;5111203;28;20223;-76
2023/10/15 01:25:57;;;;;;;10.55;7.05;;;;;;;16.13;47.91;94615.97;5108283;28;20213;-76
2023/10/15 01:28:30;;;;;;;10.60;6.97;;;;;;;16.10;47.99;94617.19;5108011;28;20207;-76
2023/10/15 01:30:58;;;;;;;12.15;7.40;;;;;;;15.75;50.05;94624.31;5128652;28;20230;-75
2023/10/15 01:33:24;;;;;;;12.60;7.25;;;;;;;15.82;50.12;94619.88;5112921;28;20210;-75
2023/10/15 01:35:50;;;;;;;8.23;7.03;;;;;;;15.88;49.80;94619.09;5111692;28;20263;-75
2023/10/15 01:38:25;;;;;;;14.23;7.13;;;;;;;15.53;51.08;94630.63;5110669;28;20210;-75
2023/10/15 01:40:53;;;;;;;13.07;7.15;;;;;;;15.78;50.47;94639.00;5112190;27;20190;-75
2023/10/15 01:43:20;;;;;;;10.63;6.82;;;;;;;15.54;50.91;94632.28;5116007;27;20175;-76
2023/10/15 01:45:47;;;;;;;11.05;6.80;;;;;;;15.55;51.02;94625.97;5115502;27;20214;-76
2023/10/15 01:48:45;;;;;;;9.82;7.53;;;;;;;15.44;51.01;94625.47;5106625;27;20306;-76
2023/10/15 01:51:04;;;;;;;9.30;6.97;;;;;;;15.40;51.36;94626.06;5121668;27;20268;-75
2023/10/15 01:53:34;;;;;;;12.45;7.40;;;;;;;15.30;51.82;94620.25;5111038;27;20226;-75
2023/10/15 01:56:02;;;;;;;10.00;7.78;;;;;;;15.24;52.11;94621.84;5114018;27;20223;-74
2023/10/15 01:58:31;;;;;;;13.20;7.65;;;;;;;15.39;51.76;94625.22;5114254;27;20334;-75
2023/10/15 02:01:09;;;;;;;11.90;7.18;;;;;;;15.48;51.45;94619.81;5131217;27;20208;-75
2023/10/15 02:03:37;;;;;;;15.85;7.57;;;;;;;15.53;51.17;94625.31;5112835;27;20207;-75
2023/10/15 02:06:06;;;;;;;10.60;6.97;;;;;;;15.51;51.29;94612.28;5123881;27;20246;-75
2023/10/15 02:08:33;;;;;;;13.15;7.32;;;;;;;15.47;51.74;94613.66;5117503;27;20301;-75
2023/10/15 02:11:04;;;;;;;12.07;7.38;;;;;;;15.56;51.49;94614.38;5115027;27;20227;-75
2023/10/15 02:13:31;;;;;;;9.52;6.93;;;;;;;15.60;51.21;94615.59;5130743;27;20180;-75
2023/10/15 02:15:57;;;;;;;13.52;7.18;;;;;;;15.33;51.95;94610.09;5105735;27;20217;-74
2023/10/15 02:18:22;;;;;;;14.55;7.45;;;;;;;15.34;51.82;94622.34;5114259;27;20294;-74
2023/10/15 02:23:18;;;;;;;10.02;7.03;;;;;;;15.16;52.25;94617.50;5130705;27;20230;-74
2023/10/15 02:25:46;;;;;;;11.60;7.53;;;;;;;15.17;52.39;94615.66;5115109;27;20407;-75
2023/10/15 02:28:25;;;;;;;10.27;6.95;;;;;;;15.11;52.54;94619.06;5113796;27;20195;-74
2023/10/15 02:33:35;;;;;;;7.55;6.80;;;;;;;15.18;52.46;94615.47;5132033;27;20301;-74
2023/10/15 02:36:04;;;;;;;9.50;6.25;;;;;;;15.08;52.75;94614.16;5114756;27;20375;-74
2023/10/15 02:38:35;;;;;;;13.45;7.05;;;;;;;14.87;53.06;94631.66;5107044;27;20219;-74
2023/10/15 02:41:09;;;;;;;10.23;6.70;;;;;;;15.01;52.82;94624.66;5130510;27;20295;-74
2023/10/15 02:43:48;;;;;;;9.90;6.45;;;;;;;14.98;52.96;94623.22;5133654;27;20175;-74
2023/10/15 02:46:23;;;;;;;12.65;7.05;;;;;;;14.94;52.92;94624.63;5108689;27;20258;-75
2023/10/15 02:48:54;;;;;;;10.05;6.47;;;;;;;14.94;52.75;94621.13;5110884;27;20225;-74
2023/10/15 02:51:24;;;;;;;12.80;7.05;;;;;;;14.91;52.75;94624.97;5129958;27;20634;-75
2023/10/15 02:53:55;;;;;;;11.32;6.78;;;;;;;14.94;52.46;94619.31;5117649;27;20218;-76
2023/10/15 02:56:21;;;;;;;17.23;7.53;;;;;;;15.01;52.41;94611.44;5114024;27;20222;-75
2023/10/15 02:58:47;;;;;;;9.32;6.70;;;;;;;15.15;51.97;94602.59;5115251;27;20202;-76
2023/10/15 03:01:20;;;;;;;11.93;6.28;;;;;;;15.08;52.12;94611.50;5113855;27;20258;-76
2023/10/15 03:03:50;;;;;;;13.93;7.82;;;;;;;15.16;51.88;94616.66;5130561;27;20226;-75
2023/10/15 03:06:34;;;;;;;11.95;7.65;;;;;;;15.15;51.90;94613.19;5114128;27;20689;-75
2023/10/15 03:09:00;;;;;;;9.98;6.65;;;;;;;15.20;51.72;94618.72;5127924;27;20214;-75
2023/10/15 03:11:32;;;;;;;10.65;6.85;;;;;;;15.10;51.92;94609.47;5111028;27;20210;-75
2023/10/15 03:14:00;;;;;;;10.68;6.22;;;;;;;15.23;51.36;94614.88;5114511;27;20313;-75
2023/10/15 03:16:30;;;;;;;10.73;7.28;;;;;;;15.10;51.78;94612.13;5132704;27;20237;-74
2023/10/15 03:18:56;;;;;;;12.40;7.47;;;;;;;15.03;51.97;94604.13;5131023;27;20221;-72
2023/10/15 03:21:26;;;;;;;10.45;6.45;;;;;;;15.02;51.88;94605.09;5130243;27;20303;-73
2023/10/15 03:23:58;;;;;;;13.65;6.90;;;;;;;15.07;51.78;94609.84;5113812;27;20233;-74
2023/10/15 03:26:36;;;;;;;10.18;6.32;;;;;;;15.05;51.88;94618.00;5114043;27;20198;-73
2023/10/15 03:29:07;;;;;;;8.32;6.22;;;;;;;14.99;51.89;94608.97;5110068;27;20240;-74
2023/10/15 03:31:36;;;;;;;9.20;6.10;;;;;;;15.06;51.86;94605.56;5132749;27;20203;-74
2023/10/15 03:42:17;;;;;;;9.00;7.10;;;;;;;14.89;52.20;94610.28;5086226;28;20224;-75
2023/10/15 03:44:44;;;;;;;13.23;7.53;;;;;;;14.85;52.45;94607.19;5082521;28;20223;-74
2023/10/15 03:47:10;;;;;;;12.40;7.53;;;;;;;14.77;52.70;94609.97;5069996;28;20217;-74
2023/10/15 03:49:36;;;;;;;15.60;7.80;;;;;;;14.76;52.87;94603.03;5087246;28;20264;-74
2023/10/15 03:52:08;;;;;;;14.52;7.65;;;;;;;14.64;53.06;94604.53;5089666;28;20270;-75
2023/10/15 03:54:37;;;;;;;11.25;6.57;;;;;;;14.65;53.08;94614.09;5066516;28;20221;-74
2023/10/15 03:57:06;;;;;;;14.48;7.00;;;;;;;14.65;53.02;94606.16;5071425;28;20234;-75
2023/10/15 03:59:41;;;;;;;12.80;7.22;;;;;;;14.62;53.28;94604.72;5075171;28;20224;-75
2023/10/15 04:02:11;;;;;;;16.00;8.45;;;;;;;14.54;53.52;94600.34;5085338;28;20219;-75
2023/10/15 04:04:37;;;;;;;12.27;7.78;;;;;;;14.49;53.91;94592.13;5080436;28;20194;-74
2023/10/15 04:07:25;;;;;;;10.65;7.65;;;;;;;14.40;53.87;94609.09;5069051;28;20177;-75
2023/10/15 04:09:50;;;;;;;11.68;7.30;;;;;;;14.28;54.08;94598.19;5088171;28;20445;-75
2023/10/15 04:12:18;;;;;;;10.68;7.75;;;;;;;14.38;54.12;94600.56;5074583;28;20231;-75
2023/10/15 04:14:44;;;;;;;10.00;7.35;;;;;;;14.45;53.87;94592.69;5088700;28;20228;-77
2023/10/15 04:17:11;;;;;;;9.35;6.70;;;;;;;14.20;54.65;94598.28;5113336;27;20223;-76
2023/10/15 04:19:36;;;;;;;15.15;7.78;;;;;;;14.26;54.27;94592.25;5112689;27;20362;-76
2023/10/15 04:22:14;;;;;;;14.30;8.77;;;;;;;14.36;54.22;94591.97;5113707;27;20231;-76
2023/10/15 04:24:47;;;;;;;12.98;8.13;;;;;;;14.39;53.96;94596.88;5130227;27;20225;-76
2023/10/15 04:27:24;;;;;;;14.82;7.93;;;;;;;14.46;53.71;94596.94;5101753;27;20219;-76
2023/10/15 04:29:55;;;;;;;13.10;8.13;;;;;;;14.46;53.50;94597.78;5108600;28;20218;-75
2023/10/15 04:34:53;;;;;;;12.25;7.97;;;;;;;14.36;53.88;94599.91;5131525;27;20214;-75
2023/10/15 04:37:20;;;;;;;14.55;9.13;;;;;;;14.07;55.04;94598.94;5112924;28;20209;-75
2023/10/15 04:39:55;;;;;;;16.45;7.75;;;;;;;14.13;54.75;94606.13;5130769;27;20217;-76
2023/10/15 04:42:22;;;;;;;11.00;7.07;;;;;;;13.97;55.42;94601.03;5130286;27;20215;-76
2023/10/15 04:44:50;;;;;;;11.55;7.80;;;;;;;14.00;55.47;94605.13;5112742;27;20214;-76
2023/10/15 04:47:25;;;;;;;14.32;7.65;;;;;;;13.98;55.35;94604.47;5110865;28;20218;-75
2023/10/15 04:49:56;;;;;;;10.05;8.18;;;;;;;14.01;55.36;94599.66;5109781;28;20186;-76
2023/10/15 04:52:22;;;;;;;9.65;7.57;;;;;;;13.93;55.61;94601.59;5111706;28;20227;-75
2023/10/15 04:54:48;;;;;;;11.65;8.05;;;;;;;13.85;55.84;94600.66;5108646;28;20226;-75
2023/10/15 04:57:13;;;;;;;8.68;6.93;;;;;;;13.98;55.47;94604.47;5110619;28;20215;-77
2023/10/15 04:59:39;;;;;;;17.58;7.63;;;;;;;13.80;55.88;94604.88;5123043;28;20219;-77
2023/10/15 05:02:07;;;;;;;13.60;8.02;;;;;;;13.76;55.83;94612.31;5130476;28;20214;-76
2023/10/15 05:04:32;;;;;;;13.23;7.95;;;;;;;13.74;56.22;94616.13;5113774;28;20189;-76
2023/10/15 05:06:58;;;;;;;12.73;7.75;;;;;;;13.80;55.87;94616.25;5115862;28;20207;-76
2023/10/15 05:09:23;;;;;;;8.55;7.30;;;;;;;13.63;56.14;94610.31;5114289;28;20246;-76
2023/10/15 05:11:50;;;;;;;9.35;7.57;;;;;;;13.53;56.55;94617.69;5113444;28;20218;-76
2023/10/15 05:14:17;;;;;;;12.55;7.57;;;;;;;13.25;57.76;94626.13;5110606;27;20233;-76
2023/10/15 05:16:46;;;;;;;10.68;7.93;;;;;;;13.38;57.40;94619.47;5135486;27;20202;-76
2023/10/15 05:19:17;;;;;;;10.32;7.72;;;;;;;13.48;57.01;94624.50;5114656;27;20186;-76
2023/10/15 05:21:46;;;;;;;12.20;7.38;;;;;;;13.79;56.17;94617.25;5129130;27;20214;-76
2023/10/15 05:24:18;;;;;;;13.18;8.27;;;;;;;13.71;56.08;94627.06;5132488;27;20214;-76
2023/10/15 05:26:47;;;;;;;9.13;7.25;;;;;;;13.82;55.95;94624.81;5133296;27;20240;-76
2023/10/15 05:29:15;;;;;;;12.45;7.57;;;;;;;13.87;55.67;94632.19;5115305;27;20207;-75
2023/10/15 05:31:41;;;;;;;14.60;7.78;;;;;;;13.81;56.21;94625.81;5115799;27;20294;-75
2023/10/15 05:34:07;;;;;;;12.27;7.50;;;;;;;14.06;55.44;94623.75;5114571;27;20214;-75
2023/10/15 05:36:35;;;;;;;11.55;8.43;;;;;;;14.14;55.15;94628.13;5112100;27;20283;-74
2023/10/15 05:39:02;;;;;;;12.27;8.07;;;;;;;14.28;54.65;94631.75;5099636;27;20616;-75
2023/10/15 05:41:31;;;;;;;9.43;7.93;;;;;;;14.29;54.68;94628.09;5132669;27;20222;-76
2023/10/15 05:43:56;;;;;;;14.30;7.88;;;;;;;14.07;55.15;94625.38;5116553;27;20223;-75
2023/10/15 05:46:22;;;;;;;13.73;8.50;;;;;;;14.33;54.72;94619.63;5116158;27;20190;-76
2023/10/15 05:48:47;;;;;;;14.27;8.25;;;;;;;14.45;54.49;94621.78;5117439;27;20232;-76
2023/10/15 05:51:13;;;;;;;14.90;8.05;;;;;;;14.54;54.46;94616.25;5114346;27;20214;-78
2023/10/15 05:53:39;;;;;;;11.38;7.68;;;;;;;14.59;54.50;94614.84;5113203;27;20207;-74
2023/10/15 05:56:05;;;;;;;13.82;8.93;;;;;;;14.65;54.17;94614.94;5117636;27;20230;-75
2023/10/15 05:58:31;;;;;;;11.25;8.82;;;;;;;14.29;55.23;94620.16;5122343;27;20560;-74
2023/10/15 06:00:57;;;;;;;14.07;8.73;;;;;;;14.51;55.03;94615.72;5116954;27;20222;-80
2023/10/15 06:03:22;;;;;;;13.82;8.25;;;;;;;14.66;54.26;94626.34;5120527;27;20238;-79
2023/10/15 06:05:48;;;;;;;9.60;8.60;;;;;;;14.77;53.96;94623.19;5097914;27;20215;-80
2023/10/15 06:08:14;;;;;;;11.85;8.00;;;;;;;14.91;53.68;94624.97;5115082;27;20283;-79
2023/10/15 06:10:39;;;;;;;9.93;8.02;;;;;;;15.02;53.10;94618.34;5134607;27;20197;-80
2023/10/15 06:13:05;;;;;;;13.75;9.35;;;;;;;15.12;53.19;94626.81;5122342;27;20222;-80
2023/10/15 06:15:30;;;;;;;12.90;9.05;;;;;;;15.22;52.61;94626.50;5121140;27;20211;-81
2023/10/15 06:17:56;;;;;;;11.07;8.68;;;;;;;15.26;52.55;94619.78;5125341;27;20234;-85
2023/10/15 06:20:21;;;;;;;13.48;8.25;;;;;;;15.27;52.56;94623.28;5126421;27;20277;-82
2023/10/15 06:22:49;;;;;;;17.85;8.93;;;;;;;15.36;52.38;94617.66;5127038;27;20246;-81
2023/10/15 06:25:18;;;;;;;14.15;9.00;;;;;;;15.31;52.60;94617.41;5117492;27;20185;-79
2023/10/15 06:27:44;;;;;;;12.43;9.55;;;;;;;15.19;52.65;94611.81;5097313;27;20214;-78
2023/10/15 06:30:17;;;;;;;13.73;9.00;;;;;;;15.44;52.60;94606.09;5116888;27;20704;-79
2023/10/15 06:32:49;;;;;;;12.23;8.57;;;;;;;15.53;52.26;94610.25;5114086;27;20222;-77
2023/10/15 06:35:19;;;;;;;12.65;9.05;;;;;;;15.60;51.82;94599.69;5115318;27;20222;-77
2023/10/15 06:37:57;;;;;;;13.25;9.38;;;;;;;15.69;51.62;94597.75;5114829;27;20207;-74
2023/10/15 06:40:24;;;;;;;12.57;9.18;;;;;;;15.73;51.79;94599.00;5106063;27;20199;-75
2023/10/15 06:42:51;;;;;;;16.10;9.90;;;;;;;15.74;51.93;94605.94;5094965;27;20219;-78
2023/10/15 06:45:19;;;;;;;12.25;9.27;;;;;;;15.78;51.46;94601.91;5102717;27;20297;-77
2023/10/15 06:47:46;;;;;;;15.07;9.10;;;;;;;15.84;51.29;94607.22;5097593;27;20214;-78
2023/10/15 06:50:12;;;;;;;10.60;8.35;;;;;;;15.71;51.41;94599.19;5103367;27;20214;-78
2023/10/15 06:52:42;;;;;;;13.88;9.73;;;;;;;15.79;50.74;94596.41;5122921;27;20228;-77
2023/10/15 06:55:13;;;;;;;15.15;10.23;;;;;;;15.86;51.15;94599.91;5099511;27;20198;-81
2023/10/15 06:57:39;;;;;;;13.63;9.88;;;;;;;16.00;50.64;94592.03;5121039;27;20230;-81
2023/10/15 07:00:07;;;;;;;13.45;8.63;;;;;;;16.03;50.03;94594.28;5108697;27;20210;-82
2023/10/15 07:02:32;;;;;;;14.90;9.10;;;;;;;16.15;50.04;94589.28;5124697;27;20227;-78
2023/10/15 07:05:00;;;;;;;13.60;9.00;;;;;;;16.20;49.59;94582.38;5101443;27;20227;-79
2023/10/15 07:07:26;;;;;;;12.15;9.15;;;;;;;16.34;49.46;94577.13;5104375;27;20474;-76
2023/10/15 07:09:52;;;;;;;11.77;9.15;;;;;;;16.44;49.08;94572.22;5120202;27;20214;-77
2023/10/15 07:12:17;;;;;;;13.80;9.45;;;;;;;16.52;48.80;94577.41;5102754;27;20509;-80
2023/10/15 07:14:43;;;;;;;18.10;14.07;;;;;;;16.57;48.53;94569.63;5106266;27;20210;-80
2023/10/15 07:17:09;;;;;;;10.40;9.20;;;;;;;16.58;48.61;94573.94;5119738;27;20220;-80
2023/10/15 07:19:35;;;;;;;11.82;8.18;;;;;;;16.66;47.81;94572.94;5106530;28;20180;-82
2023/10/15 07:22:01;;;;;;;12.20;8.32;;;;;;;16.83;47.41;94560.13;5100809;27;20288;-80
2023/10/15 07:24:27;;;;;;;12.50;8.32;;;;;;;16.93;47.37;94579.16;5104601;27;20222;-75
2023/10/15 07:26:52;;;;;;;15.25;8.10;;;;;;;17.09;46.99;94568.16;5101769;27;20300;-79
2023/10/15 07:29:18;;;;;;;12.32;7.82;;;;;;;17.22;46.23;94562.03;5102087;27;20218;-76
2023/10/15 07:31:44;;;;;;;12.65;7.82;;;;;;;17.04;46.73;94561.81;5101585;27;20206;-76
2023/10/15 07:34:10;;;;;;;10.38;7.93;;;;;;;17.13;46.53;94557.91;5104694;27;20178;-78
2023/10/15 07:36:36;;;;;;;12.85;8.50;;;;;;;17.22;46.48;94547.94;5104250;27;20219;-78
2023/10/15 07:39:06;;;;;;;13.75;8.55;;;;;;;17.37;46.04;94553.84;5103299;27;20218;-77
2023/10/15 07:41:34;;;;;;;13.85;8.45;;;;;;;17.44;46.15;94557.31;5103278;27;20221;-78
2023/10/15 07:44:01;;;;;;;14.98;8.07;;;;;;;17.52;46.08;94562.44;5098179;27;20229;-77
2023/10/15 07:46:28;;;;;;;11.57;8.93;;;;;;;17.24;46.25;94548.53;5121282;27;20435;-75
2023/10/15 07:48:54;;;;;;;12.05;8.10;;;;;;;17.47;45.79;94548.94;5103080;27;20213;-78
2023/10/15 07:51:20;;;;;;;14.32;8.40;;;;;;;17.61;45.33;94545.25;5103963;27;20279;-79
2023/10/15 07:53:45;;;;;;;12.27;8.25;;;;;;;17.73;44.73;94548.09;5118546;27;20211;-76
2023/10/15 07:56:14;;;;;;;13.48;7.25;;;;;;;17.73;44.81;94548.09;5102654;27;20249;-78
2023/10/15 07:58:40;;;;;;;11.80;7.43;;;;;;;17.80;44.21;94558.72;5101295;27;20248;-76
2023/10/15 08:01:05;;;;;;;12.38;7.32;;;;;;;17.86;44.51;94552.59;5105205;27;20223;-81
2023/10/15 08:03:32;;;;;;;9.23;7.25;;;;;;;17.96;44.25;94547.69;5123778;27;20214;-80
2023/10/15 08:06:01;;;;;;;17.25;8.50;;;;;;;18.05;43.66;94549.06;5096037;27;20303;-79
2023/10/15 08:08:27;;;;;;;13.80;8.70;;;;;;;18.07;43.60;94543.56;5105232;27;20210;-72
2023/10/15 08:10:52;;;;;;;14.23;7.55;;;;;;;17.97;43.47;94546.63;5110299;27;20185;-77
2023/10/15 08:13:18;;;;;;;15.48;7.75;;;;;;;18.03;43.20;94544.97;5105953;27;21313;-72
2023/10/15 08:15:44;;;;;;;14.40;7.55;;;;;;;18.02;43.72;94538.84;5104615;27;20267;-80
2023/10/15 08:18:09;;;;;;;16.83;8.30;;;;;;;18.24;43.12;94525.25;5103195;27;20233;-77
2023/10/15 08:20:35;;;;;;;13.70;7.65;;;;;;;18.22;43.38;94528.13;5102908;27;20367;-78
2023/10/15 08:23:01;;;;;;;9.95;7.32;;;;;;;18.27;42.98;94528.31;5102925;27;20219;-78
2023/10/15 08:25:26;;;;;;;11.77;7.85;;;;;;;18.30;42.78;94527.06;5102995;27;20281;-77
2023/10/15 08:27:52;;;;;;;12.45;8.30;;;;;;;18.18;43.06;94531.44;5104519;27;20207;-78
2023/10/15 08:30:18;;;;;;;14.00;8.10;;;;;;;18.30;43.38;94527.06;5103305;27;20222;-76
2023/10/15 08:32:44;;;;;;;9.73;8.15;;;;;;;18.36;42.82;94520.09;5100601;28;20218;-78
2023/10/15 08:35:13;;;;;;;9.55;8.15;;;;;;;18.43;42.73;94508.38;5101798;28;20214;-77
2023/10/15 08:37:39;;;;;;;19.20;9.73;;;;;;;18.64;42.53;94506.44;5117923;27;20323;-77
2023/10/15 08:40:05;;;;;;;16.90;8.82;;;;;;;18.71;42.96;94507.19;5101150;27;20183;-78
2023/10/15 08:42:37;;;;;;;14.02;9.50;;;;;;;18.77;42.28;94505.56;5097031;27;20297;-76
2023/10/15 08:45:05;;;;;;;14.05;7.95;;;;;;;18.84;42.57;94507.13;5089308;27;20226;-81
2023/10/15 08:47:33;;;;;;;11.65;7.93;;;;;;;18.97;41.85;94513.41;5121402;27;20302;-79
2023/10/15 08:50:00;;;;;;;12.65;7.97;;;;;;;19.09;41.43;94504.53;5102620;28;20220;-81
2023/10/15 08:52:26;;;;;;;11.77;7.82;;;;;;;19.04;41.31;94501.69;5121665;28;20211;-78
2023/10/15 08:54:53;;;;;;;13.57;7.95;;;;;;;19.13;41.25;94500.38;5119879;28;20265;-79
2023/10/15 08:57:19;;;;;;;10.90;7.53;;;;;;;19.16;41.45;94491.13;5100691;28;20219;-77
2023/10/15 08:59:45;;;;;;;10.52;7.72;;;;;;;19.31;40.99;94501.47;5104285;28;20217;-74
2023/10/15 09:02:13;;;;;;;11.10;7.90;;;;;;;19.39;41.60;94494.00;5099769;28;20219;-77
2023/10/15 09:04:39;;;;;;;24.55;8.18;;;;;;;19.64;40.56;94498.50;5121537;28;20186;-81
2023/10/15 09:07:04;;;;;;;17.02;8.07;;;;;;;19.67;40.49;94486.59;5116615;28;20195;-80
2023/10/15 09:09:34;;;;;;;11.10;7.80;;;;;;;19.78;40.36;94494.69;5102120;28;20245;-76
2023/10/15 09:12:06;;;;;;;11.57;6.82;;;;;;;19.95;39.95;94492.25;5117744;28;20227;-74
2023/10/15 09:14:45;;;;;;;10.73;6.82;;;;;;;19.97;39.65;94484.84;5102158;28;20214;-76
2023/10/15 09:17:14;;;;;;;12.65;6.78;;;;;;;19.98;39.74;94488.31;5123182;28;20227;-78
2023/10/15 09:19:41;;;;;;;10.02;6.38;;;;;;;20.04;39.44;94480.22;5111132;28;20183;-78
2023/10/15 09:22:14;;;;;;;12.55;6.93;;;;;;;20.17;39.54;94478.44;5099157;28;20227;-79
2023/10/15 09:24:39;;;;;;;13.57;6.50;;;;;;;20.46;40.04;94479.50;5111009;28;20225;-79
2023/10/15 09:27:05;;;;;;;8.93;6.65;;;;;;;20.38;39.50;94474.50;5117226;28;20203;-78
2023/10/15 09:29:31;;;;;;;9.10;6.60;;;;;;;20.65;38.57;94469.63;5111588;28;20354;-77
2023/10/15 09:32:01;;;;;;;13.55;5.80;;;;;;;20.81;38.27;94473.50;5100963;28;20227;-77
2023/10/15 09:34:27;;;;;;;9.68;7.15;;;;;;;20.69;38.42;94466.28;5112708;28;20202;-77
2023/10/15 09:36:53;;;;;;;8.77;6.18;;;;;;;20.67;38.37;94460.34;5112285;28;20235;-78
2023/10/15 09:39:19;;;;;;;12.43;6.53;;;;;;;20.80;38.15;94455.84;5113330;28;20222;-79
2023/10/15 09:41:45;;;;;;;12.25;6.40;;;;;;;20.91;38.23;94457.75;5109895;28;20222;-76
2023/10/15 09:44:14;;;;;;;11.93;6.50;;;;;;;21.02;38.12;94459.59;5102698;28;20226;-77
2023/10/15 09:46:43;;;;;;;11.63;6.32;;;;;;;21.17;38.52;94451.16;5129993;28;20243;-77
2023/10/15 09:49:12;;;;;;;8.35;6.07;;;;;;;21.36;37.74;94449.19;5112731;28;20183;-77
2023/10/15 09:51:38;;;;;;;14.23;6.07;;;;;;;21.40;37.68;94454.91;5124932;28;20237;-80
2023/10/15 09:54:06;;;;;;;29.90;9.48;;;;;;;21.53;37.61;94443.97;5107505;28;20219;-76
2023/10/15 09:56:34;;;;;;;18.85;6.60;;;;;;;21.70;37.30;94444.06;5110028;28;20303;-76
2023/10/15 09:59:02;;;;;;;11.13;5.35;;;;;;;21.84;36.59;94442.78;5105763;28;20227;-76
2023/10/15 10:01:30;;;;;;;14.32;6.97;;;;;;;21.84;36.75;94439.28;5129359;27;20193;-75
2023/10/15 10:04:23;;;;;;;51.47;8.52;;;;;;;21.97;36.67;94439.00;5095361;27;20241;-70
2023/10/15 10:07:07;;;;;;;8.77;6.35;;;;;;;22.09;37.48;94430.97;5113425;27;20731;-68
2023/10/15 10:09:54;;;;;;;10.68;6.10;;;;;;;22.20;36.09;94427.47;5110430;27;20219;-68
2023/10/15 10:12:52;;;;;;;9.98;5.82;;;;;;;22.29;36.53;94425.22;5117574;27;20226;-70
2023/10/15 10:15:52;;;;;;;10.57;5.75;;;;;;;22.22;37.08;94420.00;5055140;28;20308;-72
2023/10/15 10:18:18;;;;;;;10.52;5.85;;;;;;;22.13;37.28;94416.03;5069065;28;20229;-70
2023/10/15 10:20:47;;;;;;;14.43;6.03;;;;;;;22.27;37.74;94406.72;5045761;28;20231;-71
2023/10/15 10:23:14;;;;;;;9.55;4.95;;;;;;;22.45;36.92;94398.50;5070082;28;20237;-70
2023/10/15 10:25:42;;;;;;;9.55;5.97;;;;;;;22.54;36.74;94401.59;5054691;28;20196;-71
2023/10/15 10:28:13;;;;;;;11.48;6.15;;;;;;;22.65;36.78;94392.66;5058430;28;20173;-72
2023/10/15 10:30:50;;;;;;;9.65;5.60;;;;;;;22.73;35.87;94383.41;5073422;28;20232;-72
2023/10/15 10:33:40;;;;;;;11.13;5.70;;;;;;;22.86;36.44;94383.09;5069386;28;20221;-73
2023/10/15 10:36:17;;;;;;;13.00;6.00;;;;;;;22.98;35.28;94379.53;5051160;28;20272;-72
2023/10/15 10:38:43;;;;;;;8.73;5.63;;;;;;;22.95;36.32;94375.44;5053053;28;20232;-72
2023/10/15 10:41:15;;;;;;;8.65;5.40;;;;;;;23.00;34.94;94364.84;5072100;28;20213;-73
2023/10/15 10:43:44;;;;;;;11.25;5.47;;;;;;;23.13;36.08;94361.00;5069734;28;20197;-74
2023/10/15 10:46:22;;;;;;;10.32;5.38;;;;;;;23.28;36.55;94360.41;5051696;28;20180;-73
2023/10/15 10:49:04;;;;;;;9.07;5.20;;;;;;;23.45;35.15;94357.72;5066298;28;20216;-73
2023/10/15 10:51:32;;;;;;;9.40;6.00;;;;;;;23.61;34.63;94356.84;5095544;27;20250;-71
2023/10/15 10:53:57;;;;;;;10.75;5.18;;;;;;;23.65;33.95;94349.91;5127396;27;20217;-73
2023/10/15 10:56:25;;;;;;;8.77;5.25;;;;;;;23.74;35.34;94336.91;5129828;27;20220;-72
2023/10/15 10:58:57;;;;;;;10.60;5.55;;;;;;;23.96;34.02;94342.25;5105819;27;20270;-72
2023/10/15 11:01:23;;;;;;;7.50;4.57;;;;;;;23.96;32.86;94334.22;5101805;27;20186;-71
2023/10/15 11:03:48;;;;;;;6.43;4.45;;;;;;;24.01;31.59;94328.88;5113381;27;20283;-72
2023/10/15 11:06:15;;;;;;;6.25;4.35;;;;;;;24.06;32.05;94326.25;5112287;27;20313;-70
2023/10/15 11:08:41;;;;;;;11.77;5.40;;;;;;;24.21;32.00;94326.41;5111520;27;20245;-72
2023/10/15 11:11:09;;;;;;;8.52;5.00;;;;;;;24.25;31.70;94310.59;5131266;27;20241;-71
2023/10/15 11:13:35;;;;;;;7.95;4.57;;;;;;;24.33;30.32;94323.56;5115433;27;20213;-72
2023/10/15 11:16:00;;;;;;;14.23;5.90;;;;;;;24.39;30.62;94319.06;5113523;27;20250;-72
2023/10/15 11:18:26;;;;;;;5.45;4.72;;;;;;;24.41;30.41;94323.13;5129608;27;20219;-73
2023/10/15 11:20:52;;;;;;;7.32;4.63;;;;;;;24.51;30.37;94317.06;5093288;27;20214;-69
2023/10/15 11:23:23;;;;;;;7.60;4.32;;;;;;;24.60;30.14;94320.09;5101040;27;20259;-71
2023/10/15 11:25:51;;;;;;;9.57;4.45;;;;;;;24.74;29.84;94310.50;5119885;27;20527;-69
2023/10/15 11:28:18;;;;;;;6.43;4.22;;;;;;;24.69;29.54;94302.41;5102729;27;20258;-71
2023/10/15 11:30:45;;;;;;;7.55;4.70;;;;;;;24.84;31.08;94310.59;5119465;27;20207;-71
2023/10/15 11:33:12;;;;;;;7.40;4.65;;;;;;;24.96;30.70;94314.97;5102246;27;20214;-70
2023/10/15 11:35:38;;;;;;;6.03;4.47;;;;;;;25.00;29.42;94310.72;5103469;27;20215;-71
2023/10/15 11:38:10;;;;;;;7.38;4.75;;;;;;;24.78;29.26;94308.94;5102349;27;20218;-72
2023/10/15 11:40:38;;;;;;;5.85;4.72;;;;;;;24.76;30.57;94303.00;5120032;27;20194;-71
2023/10/15 11:43:08;;;;;;;7.47;4.85;;;;;;;24.92;29.25;94303.13;5119402;27;20190;-70
2023/10/15 11:45:37;;;;;;;9.23;5.50;;;;;;;25.05;29.71;94298.09;5101291;27;20222;-69
2023/10/15 11:48:04;;;;;;;6.72;4.93;;;;;;;25.12;30.30;94299.75;5102560;27;20206;-69
2023/10/15 11:50:30;;;;;;;7.65;5.22;;;;;;;25.11;29.49;94303.50;5081603;27;20298;-70
2023/10/15 11:52:55;;;;;;;7.40;4.60;;;;;;;25.24;30.20;94300.41;5103467;27;20228;-71